Tiempo atmosférico en la estación meteorológica de Zaorejas, Guadalajara (1230 m.)



Fecha
DESCASC
Temp. máxima en grados centígrados (hora)
DESCASC
Temp. mínima en grados centígrados (hora)
DESCASC
Temp. media en grados centígrados
DESCASC
Racha de viento máxima en m/sg (hora)
DESCASC
Velocidad máxima media en intervalos de 10 minutos(hora)
DESCASC
Precipitaciones diarias en mm
DESCASC
Precipitaciones de 00:00 a 06:00 en mm
DESCASC
Precipitaciones de 06:00 a 12:00 en mm
DESCASC
Precipitaciones de 12:00 a 18:00 en mm
DESCASC
Precipitaciones de 18:00 a 24:00 en mm
DESCASC
13-10-2019 22.9 (16:40) 11.8 (03:20) 17.3 13.89 (17:00) 7.22 (15:30) -- -- -- -- --
12-10-2019 23.4 (16:30) 15 (23:59) 19.2 10.83 (22:50) 5.83 (23:00) -- -- -- -- --
11-10-2019 25 (16:20) 11.6 (08:30) 18.3 10 (16:10) 5 (14:20) -- -- -- -- --
10-10-2019 24.1 (16:00) 7 (00:00) 15.6 8.06 (16:10) 4.17 (23:00) -- -- -- -- --
09-10-2019 25.5 (17:00) 10.9 (00:00) 18.2 8.33 (16:00) 4.17 (05:00) -- -- -- -- --
08-10-2019 26.6 (16:00) 9.8 (00:00) 18.2 7.78 (17:50) 3.89 (17:00) -- -- -- -- --
07-10-2019 23.2 (15:20) 8.5 (00:00) 15.9 10.28 (15:40) 5.28 (15:40) -- -- -- -- --
06-10-2019 24.3 (16:40) 8.8 (00:00) 16.5 7.22 (18:40) 3.61 (18:30) -- -- -- -- --
05-10-2019 25.1 (17:20) 8.3 (00:00) 16.7 6.39 (17:50) 3.61 (17:40) -- -- -- -- --
04-10-2019 25.2 (16:00) 7.5 (00:00) 16.4 9.17 (15:10) 4.72 (16:40) -- -- -- -- --
03-10-2019 23.9 (16:40) 6.8 (00:00) 15.3 7.78 (16:30) 3.61 (16:30) -- -- -- -- --
02-10-2019 18.5 (16:40) 9.2 (00:00) 13.8 10.28 (15:50) 4.17 (16:50) -- -- -- -- --
01-10-2019 24.5 (16:50) 12.9 (00:00) 18.7 10 (16:10) 5.28 (05:20) -- -- -- -- --
30-09-2019 27.2 (16:30) 9.4 (00:00) 18.3 8.89 (17:10) 4.44 (17:00) -- -- -- -- --
29-09-2019 26.4 (16:50) 12.2 (00:00) 19.3 10.56 (13:40) 5.28 (14:30) -- -- -- -- --
28-09-2019 26.9 (16:20) 8 (00:00) 17.4 8.61 (12:50) 4.72 (16:50) -- -- -- -- --
27-09-2019 25.5 (16:30) 10.4 (00:00) 17.9 8.89 (14:30) 4.44 (16:50) -- -- -- -- --
26-09-2019 25.1 (17:00) 8.2 (00:00) 16.7 8.89 (15:20) 4.72 (15:20) -- -- -- -- --
25-09-2019 21.1 (16:50) 10.8 (00:00) 16 6.67 (15:20) 3.89 (02:00) -- -- -- -- --
24-09-2019 24.3 (16:10) 10.6 (00:00) 17.4 11.11 (16:40) 6.11 (04:00) -- -- -- -- --
23-09-2019 21 (15:40) 7 (00:00) 14 8.06 (16:50) 3.89 (16:00) -- -- -- -- --
22-09-2019 19.8 (16:50) 12.3 (00:00) 16 11.94 (12:10) 6.67 (12:00) -- -- -- -- --
21-09-2019 19.8 (15:40) 11.8 (00:00) 15.8 10.83 (16:30) 6.11 (16:20) -- -- -- -- --
20-09-2019 24.2 (15:30) 13.9 (00:00) 19.1 9.72 (16:40) 5.83 (16:40) -- -- -- -- --
19-09-2019 25.1 (17:10) 10.6 (00:00) 17.9 7.78 (19:40) 5 (19:40) -- -- -- -- --
18-09-2019 24 (17:40) 9.8 (00:00) 16.9 6.94 (18:40) 3.33 (16:00) -- -- -- -- --
17-09-2019 26.2 (17:30) 11.2 (00:00) 18.7 15.56 (20:30) 8.61 (20:40) -- -- -- -- --
16-09-2019 21.6 (16:10) 12.7 (00:00) 17.2 6.67 (16:40) 3.33 (16:40) -- -- -- -- --
15-09-2019 19.8 (14:40) 12 (00:00) 15.9 10.83 (17:50) 5.28 (17:50) -- -- -- -- --

Gráficas

Temp. máximas Temp. mínimas Temp. medias Precipitaciones Rachas de viento máximas Velocidades máximas media en intervalos de 10 minutos

Datos horarios

Fecha y hora oficial Temperatura (ºC) Velocidad del viento (km/h) Dirección del viento Racha (km/h) Dirección de racha Precipitación (mm) Presión (hPa) Tendencia (hPa) Humedad (%)
2019-10-14 23:00:00 6.7 12 Sudoeste 25 Oeste -- -- -- 94
2019-10-14 22:00:00 6.8 14 Sudoeste 53 Sudoeste -- -- -- 90
2019-10-14 21:00:00 8.5 25 Sudoeste 61 Oeste -- -- -- 87
2019-10-14 20:00:00 12 20 Sudoeste 41 Sudoeste -- -- -- 60
2019-10-14 19:00:00 13.4 21 Sudoeste 49 Sudoeste -- -- -- 57
2019-10-14 18:00:00 14.1 26 Sudoeste 55 Sudoeste -- -- -- 63
2019-10-14 17:00:00 14 22 Sudoeste 49 Sudoeste -- -- -- 80
2019-10-14 16:00:00 13 24 Sudoeste 50 Oeste -- -- -- 88
2019-10-14 15:00:00 14.4 35 Sudoeste 71 Sudoeste -- -- -- 74
2019-10-14 14:00:00 15.2 26 Sudoeste 60 Sudoeste -- -- -- 78
2019-10-14 13:00:00 14.9 26 Sudoeste 45 Sudoeste -- -- -- 78
2019-10-14 12:00:00 14.1 21 Sudoeste 40 Sudoeste -- -- -- 82
2019-10-14 11:00:00 13.4 17 Sur 40 Sur -- -- -- 84
2019-10-14 10:00:00 15.7 27 Sudoeste 52 Sudoeste -- -- -- 66
2019-10-14 09:00:00 15.8 27 Sudoeste 45 Sudoeste -- -- -- 62
2019-10-14 08:00:00 16.1 21 Sudoeste 44 Sudoeste -- -- -- 61
2019-10-14 07:00:00 16.2 14 Sur 35 Sur -- -- -- 59
2019-10-14 06:00:00 15.7 12 Sur 24 Sur -- -- -- 61
2019-10-14 05:00:00 15.9 13 Sur 25 Sur -- -- -- 61
2019-10-14 04:00:00 14.7 8 Sur 21 Sur -- -- -- 65
2019-10-14 03:00:00 14.2 9 Sur 21 Sur -- -- -- 63
2019-10-14 02:00:00 14 10 Sur 19 Sur -- -- -- 50
2019-10-14 01:00:00 14.4 9 Sur 18 Sur -- -- -- 46
2019-10-14 00:00:00 13.4 8 Sur 14 Sur -- -- -- 50
2019-10-13 23:00:00 14.6 5 Sur 17 Sur -- -- -- 48
2019-10-13 22:00:00 15.4 13 Sur 17 Sudoeste -- -- -- 44
2019-10-13 21:00:00 17.4 6 Sudoeste 17 Oeste -- -- -- 40
2019-10-13 20:00:00 19.1 11 Sudoeste 26 Sudoeste -- -- -- 36
2019-10-13 19:00:00 20.6 19 Sudoeste 39 Sudoeste -- -- -- 32
2019-10-13 18:00:00 21.4 23 Sudoeste 44 Sudoeste -- -- -- 31
2019-10-13 17:00:00 22.8 24 Sudoeste 50 Sudoeste -- -- -- 30
2019-10-13 16:00:00 21.6 21 Sudoeste 47 Sudoeste -- -- -- 36
2019-10-13 15:00:00 21.1 22 Sudoeste 41 Sudoeste -- -- -- 44
2019-10-13 14:00:00 20.9 16 Sudoeste 43 Sudoeste -- -- -- 48
2019-10-13 13:00:00 18.5 16 Sudoeste 39 Oeste -- -- -- 62
2019-10-13 12:00:00 18.4 20 Sudoeste 35 Sur -- -- -- 65
2019-10-13 11:00:00 16.7 16 Sudoeste 40 Sudoeste -- -- -- 73
2019-10-13 10:00:00 14.6 17 Sur 34 Sudoeste -- -- -- 80
2019-10-13 09:00:00 12.9 15 Sur 28 Sur -- -- -- 85
2019-10-13 08:00:00 12.9 16 Sur 31 Sur -- -- -- 84
2019-10-13 07:00:00 13.2 17 Sur 34 Sur -- -- -- 83
2019-10-13 06:00:00 13.3 19 Sur 30 Sur -- -- -- 83
2019-10-13 05:00:00 12.9 12 Sur 29 Sur -- -- -- 82
2019-10-13 04:00:00 12.1 10 Sur 19 Sur -- -- -- 76
2019-10-13 03:00:00 12.3 14 Sur 19 Sur -- -- -- 71
2019-10-13 02:00:00 13 8 Sur 14 Sur -- -- -- 71
2019-10-13 01:00:00 13.8 5 Sur 23 Oeste -- -- -- 73
2019-10-13 00:00:00 15 17 Oeste 35 Oeste -- -- -- 69
2019-10-12 23:00:00 16.4 21 Oeste 39 Sudoeste -- -- -- 62
2019-10-12 22:00:00 15.9 13 Sur 19 Sudoeste -- -- -- 54
2019-10-12 21:00:00 17.2 11 Sur 17 Sudoeste -- -- -- 44
2019-10-12 20:00:00 19.5 8 Sudoeste 19 Sudoeste -- -- -- 39
2019-10-12 19:00:00 20.6 12 Sur 36 Sur -- -- -- 38
2019-10-12 18:00:00 21.2 15 Sudoeste 32 Sudoeste -- -- -- 40
2019-10-12 17:00:00 22.4 17 Sudoeste 31 Sur -- -- -- 37
2019-10-12 16:00:00 22.6 15 Sudoeste 31 Sur -- -- -- 35
2019-10-12 15:00:00 22.6 10 Sudoeste 30 Sudoeste -- -- -- 37
2019-10-12 14:00:00 22.5 14 Sudoeste 30 Sudoeste -- -- -- 38
2019-10-12 13:00:00 20.6 14 Sudoeste 30 Sudoeste -- -- -- 44
2019-10-12 12:00:00 20.1 15 Sudoeste 27 Sur -- -- -- 47
2019-10-12 11:00:00 17.5 6 Oeste 21 Sudoeste -- -- -- 60
2019-10-12 10:00:00 16.6 14 Sur 29 Sudoeste -- -- -- 62
2019-10-12 09:00:00 15.3 4 Sur 12 Sur -- -- -- 69
2019-10-12 08:00:00 15.1 4 Sudeste 22 Sur -- -- -- 71
2019-10-12 07:00:00 15.5 15 Sur 28 Sur -- -- -- 72
2019-10-12 06:00:00 15.4 16 Sur 27 Sur -- -- -- 74
2019-10-12 05:00:00 15.7 17 Sur 26 Sur -- -- -- 73
2019-10-12 04:00:00 16.2 15 Sur 28 Sudoeste -- -- -- 70
2019-10-12 03:00:00 16.7 13 Sur 26 Sudoeste -- -- -- 67
2019-10-12 02:00:00 17.2 14 Sur 23 Sur -- -- -- 64
2019-10-12 01:00:00 17.6 13 Sur 21 Sur -- -- -- 64
2019-10-12 00:00:00 18 8 Sur 23 Sudoeste -- -- -- 56
2019-10-11 23:00:00 17.9 10 Sur 16 Sudoeste -- -- -- 56
2019-10-11 22:00:00 18.6 6 Sudoeste 16 Sudoeste -- -- -- 54
2019-10-11 21:00:00 19.6 9 Sudoeste 23 Sudoeste -- -- -- 50
2019-10-11 20:00:00 20.8 10 Sudoeste 23 Sur -- -- -- 47
2019-10-11 19:00:00 22.3 13 Sudoeste 26 Sur -- -- -- 41
2019-10-11 18:00:00 23.5 12 Sudoeste 25 Sur -- -- -- 39
2019-10-11 17:00:00 24.3 15 Sudoeste 36 Sudoeste -- -- -- 42
2019-10-11 16:00:00 24.8 18 Sudoeste 30 Sudoeste -- -- -- 42
2019-10-11 15:00:00 24.2 15 Sudoeste 33 Sur -- -- -- 47
2019-10-11 14:00:00 24.3 13 Sudoeste 27 Sudoeste -- -- -- 47
2019-10-11 13:00:00 23.4 9 Sudoeste 27 Sudoeste -- -- -- 51
2019-10-11 12:00:00 20.9 6 Sudoeste 13 Sudoeste -- -- -- 61
2019-10-11 11:00:00 16.1 2 Nordeste 5 Nordeste -- -- -- 76
2019-10-11 10:00:00 12.5 2 Nordeste 4 Este -- -- -- 89
2019-10-11 09:00:00 11.7 0 Calma 3 Oeste -- -- -- 89
2019-10-11 08:00:00 11.8 0 Calma 5 Sur -- -- -- 88
2019-10-11 07:00:00 12.6 0 Calma 15 Sur -- -- -- 86
2019-10-11 06:00:00 13.3 7 Sur 20 Sur -- -- -- 85
2019-10-11 05:00:00 13.3 14 Sur 21 Sudoeste -- -- -- 86
2019-10-11 04:00:00 13.6 7 Sur 22 Sur -- -- -- 84
2019-10-11 03:00:00 13.8 15 Sur 23 Sur -- -- -- 85
2019-10-11 02:00:00 14 15 Sur 26 Sur -- -- -- 83
2019-10-11 01:00:00 14.6 15 Sur 25 Sur -- -- -- 81
2019-10-11 00:00:00 14.8 15 Sur 22 Sur -- -- -- 80
2019-10-10 23:00:00 16 15 Sur 23 Sur -- -- -- 75
2019-10-10 22:00:00 17.1 13 Sudoeste 22 Sudoeste -- -- -- 70
2019-10-10 21:00:00 17.9 9 Sur 15 Sur -- -- -- 61
2019-10-10 20:00:00 20.1 3 Oeste 14 Sudoeste -- -- -- 56
2019-10-10 19:00:00 21.8 7 Sudoeste 26 Sudoeste -- -- -- 51
2019-10-10 18:00:00 22.6 9 Sudoeste 24 Oeste -- -- -- 48
2019-10-10 17:00:00 23.8 10 Sudoeste 29 Sudoeste -- -- -- 46
2019-10-10 16:00:00 24.1 13 Sudoeste 28 Sudoeste -- -- -- 45
2019-10-10 15:00:00 22.6 13 Sudoeste 26 Sudoeste -- -- -- 48
2019-10-10 14:00:00 21.9 4 Sur 12 Sur -- -- -- 55
2019-10-10 13:00:00 18.8 4 Nordeste 9 Nordeste -- -- -- 60
2019-10-10 12:00:00 14.7 4 Nordeste 11 Nordeste -- -- -- 67
2019-10-10 11:00:00 10.9 6 Nordeste 12 Nordeste -- -- -- 74
2019-10-10 10:00:00 9.4 4 Nordeste 8 Este -- -- -- 77
2019-10-10 09:00:00 8.3 4 Este 8 Este -- -- -- 82
2019-10-10 08:00:00 7.3 4 Nordeste 12 Este -- -- -- 84
2019-10-10 07:00:00 7.4 3 Nordeste 13 Este -- -- -- 82
2019-10-10 06:00:00 7.5 4 Este 9 Este -- -- -- 83
2019-10-10 05:00:00 7.7 4 Nordeste 10 Nordeste -- -- -- 81
2019-10-10 04:00:00 8.2 4 Nordeste 18 Nordeste -- -- -- 80
2019-10-10 03:00:00 8.8 7 Nordeste 19 Este -- -- -- 79
2019-10-10 02:00:00 9.3 5 Nordeste 17 Norte -- -- -- 78
2019-10-10 01:00:00 10.1 6 Nordeste 16 Este -- -- -- 77
2019-10-10 00:00:00 11.4 9 Nordeste 19 Este -- -- -- 75
2019-10-09 23:00:00 13 6 Nordeste 20 Este -- -- -- 72
2019-10-09 22:00:00 15 6 Nordeste 15 Este -- -- -- 68
2019-10-09 21:00:00 16.9 6 Nordeste 14 Norte -- -- -- 63
2019-10-09 20:00:00 18.9 5 Nordeste 18 Nordeste -- -- -- 57
2019-10-09 19:00:00 22.1 8 Nordeste 17 Nordeste -- -- -- 49
2019-10-09 18:00:00 23.6 3 Oeste 18 Noroeste -- -- -- 40
2019-10-09 17:00:00 25.5 5 Oeste 23 Oeste -- -- -- 38
2019-10-09 16:00:00 25.2 9 Oeste 30 Oeste -- -- -- 37
2019-10-09 15:00:00 24.4 4 Noroeste 13 Oeste -- -- -- 41
2019-10-09 14:00:00 23.5 4 Noroeste 9 Sudoeste -- -- -- 43
2019-10-09 13:00:00 21.9 5 Nordeste 15 Este -- -- -- 50
2019-10-09 12:00:00 19.9 7 Nordeste 19 Nordeste -- -- -- 56
2019-10-09 11:00:00 17.4 9 Nordeste 14 Nordeste -- -- -- 58
2019-10-09 10:00:00 13.4 5 Nordeste 9 Nordeste -- -- -- 68
2019-10-09 09:00:00 11 5 Nordeste 10 Nordeste -- -- -- 73
2019-10-09 08:00:00 12 3 Sudoeste 12 Sudeste -- -- -- 69
2019-10-09 07:00:00 12.8 2 Sur 11 Sudoeste -- -- -- 67
2019-10-09 06:00:00 13.8 8 Sur 22 Sur -- -- -- 63
2019-10-09 05:00:00 13.8 15 Sur 21 Sur -- -- -- 63
2019-10-09 04:00:00 13.7 12 Sur 19 Sur -- -- -- 64
2019-10-09 03:00:00 14 12 Sur 19 Sur -- -- -- 63
2019-10-09 02:00:00 14.4 11 Sur 17 Sur -- -- -- 61
2019-10-09 01:00:00 15.6 10 Sur 15 Sur -- -- -- 57
2019-10-09 00:00:00 16.9 6 Sur 12 Sudoeste -- -- -- 53
2019-10-08 23:00:00 18.5 7 Oeste 15 Oeste -- -- -- 51
2019-10-08 22:00:00 19.3 6 Oeste 19 Sudoeste -- -- -- 48
2019-10-08 21:00:00 20.5 10 Sudoeste 18 Oeste -- -- -- 44
2019-10-08 20:00:00 21.8 10 Sudoeste 18 Sudoeste -- -- -- 41
2019-10-08 19:00:00 23.4 10 Oeste 28 Oeste -- -- -- 38
2019-10-08 18:00:00 24.5 13 Oeste 28 Sudoeste -- -- -- 36
2019-10-08 17:00:00 26.2 14 Oeste 26 Sudoeste -- -- -- 34
2019-10-08 16:00:00 26.6 10 Sudoeste 23 Oeste -- -- -- 34
2019-10-08 15:00:00 25.3 9 Sudoeste 26 Oeste -- -- -- 37
2019-10-08 14:00:00 25.3 12 Oeste 23 Oeste -- -- -- 38
2019-10-08 13:00:00 23.9 7 Oeste 17 Oeste -- -- -- 42
2019-10-08 12:00:00 21.4 4 Nordeste 8 Nordeste -- -- -- 45
2019-10-08 11:00:00 18.8 3 Nordeste 6 Sur -- -- -- 56
2019-10-08 10:00:00 13 0 Calma 7 Sur -- -- -- 76
2019-10-08 09:00:00 10.8 0 Calma 5 Nordeste -- -- -- 79
2019-10-08 08:00:00 9.8 3 Nordeste 6 Este -- -- -- 78
2019-10-08 07:00:00 11.4 4 Nordeste 9 Sudeste -- -- -- 71
2019-10-08 06:00:00 11 3 Este 6 Nordeste -- -- -- 72
2019-10-08 05:00:00 11.6 2 Sudeste 5 Nordeste -- -- -- 68
2019-10-08 04:00:00 13.2 0 Calma 10 Este -- -- -- 61
2019-10-08 03:00:00 12.5 4 Sur 10 Sur -- -- -- 63
2019-10-08 02:00:00 13.5 2 Nordeste 13 Sur -- -- -- 61
2019-10-08 01:00:00 14.6 0 Calma 8 Este -- -- -- 56
2019-10-08 00:00:00 15.8 5 Este 21 Norte -- -- -- 54
2019-10-07 23:00:00 16.4 3 Nordeste 13 Norte -- -- -- 56
2019-10-07 22:00:00 17.4 5 Nordeste 13 Nordeste -- -- -- 54
2019-10-07 21:00:00 18.5 5 Norte 14 Norte -- -- -- 51
2019-10-07 20:00:00 19.8 7 Norte 21 Norte -- -- -- 48
2019-10-07 19:00:00 21.2 6 Norte 21 Noroeste -- -- -- 45
2019-10-07 18:00:00 21.9 12 Noroeste 28 Nordeste -- -- -- 41
2019-10-07 17:00:00 23.1 10 Nordeste 30 Nordeste -- -- -- 36
2019-10-07 16:00:00 23.1 15 Norte 37 Nordeste -- -- -- 39
2019-10-07 15:00:00 23.1 16 Norte 37 Norte -- -- -- 40
2019-10-07 14:00:00 21.9 13 Norte 30 Noroeste -- -- -- 37
2019-10-07 13:00:00 19.9 11 Norte 22 Norte -- -- -- 34
2019-10-07 12:00:00 17.5 11 Norte 19 Norte -- -- -- 36
2019-10-07 11:00:00 15.2 4 Nordeste 9 Norte -- -- -- 49
2019-10-07 10:00:00 11.2 3 Norte 7 Norte -- -- -- 71
2019-10-07 09:00:00 9.1 3 Este 6 Nordeste -- -- -- 83
2019-10-07 08:00:00 9 4 Este 6 Sudeste -- -- -- 86
2019-10-07 07:00:00 8.8 0 Calma 3 Nordeste -- -- -- 80
2019-10-07 06:00:00 9.5 2 Nordeste 4 Nordeste -- -- -- 79
2019-10-07 05:00:00 10 2 Este 9 Este -- -- -- 80
2019-10-07 04:00:00 10.7 0 Calma 4 Nordeste -- -- -- 72
2019-10-07 03:00:00 11.6 2 Sudeste 5 Sur -- -- -- 71
2019-10-07 02:00:00 12.5 0 Calma 5 Nordeste -- -- -- 67
2019-10-07 01:00:00 13.5 3 Nordeste 7 Norte -- -- -- 63
2019-10-07 00:00:00 14.4 5 Norte 12 Norte -- -- -- 62
2019-10-06 23:00:00 15.3 4 Norte 16 Noroeste -- -- -- 52
2019-10-06 22:00:00 16.6 8 Noroeste 23 Noroeste -- -- -- 46
2019-10-06 21:00:00 17.9 8 Norte 19 Noroeste -- -- -- 39
2019-10-06 20:00:00 19.9 5 Oeste 19 Noroeste -- -- -- 38
2019-10-06 19:00:00 21.4 9 Oeste 26 Noroeste -- -- -- 34
2019-10-06 18:00:00 22.5 6 Oeste 23 Sudoeste -- -- -- 31
2019-10-06 17:00:00 23.6 9 Noroeste 26 Oeste -- -- -- 31
2019-10-06 16:00:00 23.4 10 Oeste 24 Sudoeste -- -- -- 33
2019-10-06 15:00:00 22.4 6 Noroeste 22 Oeste -- -- -- 38
2019-10-06 14:00:00 21 7 Oeste 18 Oeste -- -- -- 42
2019-10-06 13:00:00 20.4 4 Nordeste 12 Nordeste -- -- -- 46
2019-10-06 12:00:00 18.6 4 Este 10 Este -- -- -- 50
2019-10-06 11:00:00 16.4 3 Nordeste 5 Nordeste -- -- -- 58
2019-10-06 10:00:00 12.5 3 Este 5 Este -- -- -- 73
2019-10-06 09:00:00 9.1 0 Calma 6 Sur -- -- -- 81
2019-10-06 08:00:00 9.4 3 Sur 6 Nordeste -- -- -- 76
2019-10-06 07:00:00 9.9 0 Calma 8 Sudeste -- -- -- 75
2019-10-06 06:00:00 10.1 3 Sudeste 6 Sudeste -- -- -- 72
2019-10-06 05:00:00 10.6 0 Calma 8 Sudeste -- -- -- 70
2019-10-06 04:00:00 11.1 3 Sudeste 6 Sur -- -- -- 65
2019-10-06 03:00:00 11.5 4 Sudoeste 5 Sur -- -- -- 62
2019-10-06 02:00:00 12 3 Sudoeste 6 Sudoeste -- -- -- 59
2019-10-06 01:00:00 13.3 4 Sur 6 Sur -- -- -- 57
2019-10-06 00:00:00 14.9 0 Calma 10 Oeste -- -- -- 53
2019-10-05 23:00:00 15.7 5 Sudoeste 11 Oeste -- -- -- 51
2019-10-05 22:00:00 17.3 4 Sudoeste 10 Sudoeste -- -- -- 49
2019-10-05 21:00:00 18.9 6 Oeste 11 Oeste -- -- -- 46
2019-10-05 20:00:00 20.7 5 Oeste 17 Oeste -- -- -- 42
2019-10-05 19:00:00 22.5 9 Oeste 21 Oeste -- -- -- 36
2019-10-05 18:00:00 23.7 9 Sudoeste 23 Sudoeste -- -- -- 33
2019-10-05 17:00:00 24.5 10 Oeste 22 Noroeste -- -- -- 33
2019-10-05 16:00:00 24.2 10 Oeste 23 Oeste -- -- -- 33
2019-10-05 15:00:00 23.4 6 Noroeste 21 Noroeste -- -- -- 36
2019-10-05 14:00:00 22.6 4 Oeste 19 Oeste -- -- -- 34
2019-10-05 13:00:00 21.6 6 Sudoeste 15 Oeste -- -- -- 39
2019-10-05 12:00:00 19.9 4 Este 10 Nordeste -- -- -- 51
2019-10-05 11:00:00 17.2 2 Este 5 Este -- -- -- 60
2019-10-05 10:00:00 10.9 3 Nordeste 6 Nordeste -- -- -- 73
2019-10-05 09:00:00 8.6 2 Este 6 Sudeste -- -- -- 78
2019-10-05 08:00:00 8.4 2 Nordeste 5 Sudeste -- -- -- 75
2019-10-05 07:00:00 8.4 3 Este 5 Nordeste -- -- -- 75
2019-10-05 06:00:00 9.5 3 Nordeste 6 Sudeste -- -- -- 69
2019-10-05 05:00:00 10.6 4 Sudeste 7 Nordeste -- -- -- 76
2019-10-05 04:00:00 11.1 3 Nordeste 4 Nordeste -- -- -- 63
2019-10-05 03:00:00 12.4 0 Calma 5 Nordeste -- -- -- 67
2019-10-05 02:00:00 12.5 0 Calma 6 Sur -- -- -- 59
2019-10-05 01:00:00 13.3 0 Calma 8 Sudoeste -- -- -- 53
2019-10-05 00:00:00 14.6 7 Sur 12 Sudoeste -- -- -- 50
2019-10-04 23:00:00 14.9 6 Sur 13 Sudoeste -- -- -- 49
2019-10-04 22:00:00 16.3 6 Sudoeste 17 Sudoeste -- -- -- 46
2019-10-04 21:00:00 16.9 11 Sur 17 Sudoeste -- -- -- 45
2019-10-04 20:00:00 19.8 8 Sudoeste 20 Oeste -- -- -- 39
2019-10-04 19:00:00 21.6 9 Oeste 22 Sudoeste -- -- -- 36
2019-10-04 18:00:00 22.8 14 Oeste 32 Oeste -- -- -- 34
2019-10-04 17:00:00 24.8 14 Oeste 31 Oeste -- -- -- 30
2019-10-04 16:00:00 25.2 14 Oeste 33 Oeste -- -- -- 28
2019-10-04 15:00:00 24.7 14 Oeste 28 Oeste -- -- -- 30
2019-10-04 14:00:00 23.7 10 Oeste 21 Oeste -- -- -- 29
2019-10-04 13:00:00 22.3 4 Oeste 13 Oeste -- -- -- 33
2019-10-04 12:00:00 20.3 2 Oeste 8 Sudoeste -- -- -- 39
2019-10-04 11:00:00 17.1 2 Este 6 Nordeste -- -- -- 50
2019-10-04 10:00:00 11.1 3 Este 5 Nordeste -- -- -- 65
2019-10-04 09:00:00 7.5 4 Nordeste 7 Nordeste -- -- -- 71
2019-10-04 08:00:00 8.7 3 Este 6 Sudeste -- -- -- 67
2019-10-04 07:00:00 8.2 0 Calma 6 Nordeste -- -- -- 67
2019-10-04 06:00:00 9.6 2 Sudeste 8 Sur -- -- -- 62
2019-10-04 05:00:00 9.7 4 Sudeste 8 Sur -- -- -- 62
2019-10-04 04:00:00 10.1 3 Este 7 Nordeste -- -- -- 60
2019-10-04 03:00:00 10.5 4 Sur 7 Sur -- -- -- 56
2019-10-04 02:00:00 11.3 3 Sur 6 Sur -- -- -- 55
2019-10-04 01:00:00 13.2 3 Sudoeste 8 Norte -- -- -- 48
2019-10-04 00:00:00 14.3 2 Noroeste 12 Noroeste -- -- -- 46
2019-10-03 23:00:00 14.9 2 Sudoeste 12 Noroeste -- -- -- 44
2019-10-03 22:00:00 15.8 7 Noroeste 12 Noroeste -- -- -- 43
2019-10-03 21:00:00 17 3 Noroeste 11 Noroeste -- -- -- 40
2019-10-03 20:00:00 18.6 5 Noroeste 19 Oeste -- -- -- 38
2019-10-03 19:00:00 20.4 11 Noroeste 26 Oeste -- -- -- 32
2019-10-03 18:00:00 22.6 8 Oeste 27 Oeste -- -- -- 28
2019-10-03 17:00:00 23.7 11 Oeste 28 Oeste -- -- -- 25
2019-10-03 16:00:00 23.4 11 Oeste 26 Oeste -- -- -- 29
2019-10-03 15:00:00 21.5 9 Noroeste 22 Oeste -- -- -- 32
2019-10-03 14:00:00 20.5 6 Oeste 16 Oeste -- -- -- 37
2019-10-03 13:00:00 18.3 9 Oeste 20 Oeste -- -- -- 44
2019-10-03 12:00:00 15.7 4 Noroeste 19 Sudoeste -- -- -- 54
2019-10-03 11:00:00 13.7 7 Noroeste 21 Norte -- -- -- 59
2019-10-03 10:00:00 11.1 2 Oeste 16 Noroeste -- -- -- 70
2019-10-03 09:00:00 7.7 3 Oeste 5 Noroeste -- -- -- 81
2019-10-03 08:00:00 7.4 0 Calma 5 Sur -- -- -- 81
2019-10-03 07:00:00 7 2 Este 7 Sudeste -- -- -- 81
2019-10-03 06:00:00 7.8 3 Sudeste 10 Sudeste -- -- -- 79
2019-10-03 05:00:00 8 4 Sudeste 10 Sudeste -- -- -- 79
2019-10-03 04:00:00 7.9 3 Sudeste 6 Sudeste -- -- -- 81
2019-10-03 03:00:00 8.4 2 Nordeste 7 Nordeste -- -- -- 78
2019-10-03 02:00:00 8.9 4 Este 14 Nordeste -- -- -- 77
2019-10-03 01:00:00 9.5 4 Este 9 Nordeste -- -- -- 72
2019-10-03 00:00:00 10.3 4 Nordeste 11 Nordeste -- -- -- 66
2019-10-02 23:00:00 11.4 3 Nordeste 17 Norte -- -- -- 62
2019-10-02 22:00:00 12.6 7 Nordeste 19 Nordeste -- -- -- 58
2019-10-02 21:00:00 13.8 8 Nordeste 17 Norte -- -- -- 52
2019-10-02 20:00:00 14.9 5 Norte 18 Nordeste -- -- -- 47
2019-10-02 19:00:00 16.2 8 Norte 23 Nordeste -- -- -- 45
2019-10-02 18:00:00 17.1 12 Nordeste 26 Norte -- -- -- 43
2019-10-02 17:00:00 18.4 9 Nordeste 27 Norte -- -- -- 43
2019-10-02 16:00:00 17.8 12 Norte 37 Nordeste -- -- -- 44
2019-10-02 15:00:00 17.1 14 Nordeste 31 Nordeste -- -- -- 47
2019-10-02 14:00:00 17.1 10 Nordeste 28 Norte -- -- -- 47
2019-10-02 13:00:00 14.9 10 Norte 23 Norte -- -- -- 52
2019-10-02 12:00:00 14.2 8 Norte 17 Noroeste -- -- -- 57
2019-10-02 11:00:00 12.2 10 Norte 21 Norte -- -- -- 71
2019-10-02 10:00:00 10.3 12 Norte 26 Noroeste -- -- -- 79
2019-10-02 09:00:00 9.2 10 Norte 24 Noroeste -- -- -- 81
2019-10-02 08:00:00 9.2 10 Noroeste 28 Oeste -- -- -- 79
2019-10-02 07:00:00 10.2 9 Noroeste 23 Norte -- -- -- 71
2019-10-02 06:00:00 10.8 7 Noroeste 22 Noroeste -- -- -- 66
2019-10-02 05:00:00 11.5 10 Noroeste 23 Noroeste -- -- -- 66
2019-10-02 04:00:00 12 9 Noroeste 20 Noroeste -- -- -- 67
2019-10-02 03:00:00 12.4 6 Oeste 15 Oeste -- -- -- 65
2019-10-02 02:00:00 12.7 5 Oeste 12 Sudoeste -- -- -- 66
2019-10-02 01:00:00 13.3 5 Sudoeste 9 Sudoeste -- -- -- 62
2019-10-02 00:00:00 14.7 4 Sudoeste 15 Oeste -- -- -- 58
2019-10-01 23:00:00 15.7 5 Oeste 10 Oeste -- -- -- 57
2019-10-01 22:00:00 16.8 6 Oeste 13 Oeste -- -- -- 53
2019-10-01 21:00:00 17.7 5 Oeste 27 Noroeste -- -- -- 48
2019-10-01 20:00:00 19 13 Noroeste 26 Noroeste -- -- -- 44
2019-10-01 19:00:00 21.7 16 Oeste 30 Oeste -- -- -- 27
2019-10-01 18:00:00 23 15 Oeste 30 Oeste -- -- -- 28
2019-10-01 17:00:00 24.3 13 Oeste 36 Sudoeste -- -- -- 29
2019-10-01 16:00:00 24.3 14 Sudoeste 33 Oeste -- -- -- 28
2019-10-01 15:00:00 24.2 13 Sudoeste 27 Oeste -- -- -- 26
2019-10-01 14:00:00 23.7 12 Oeste 28 Oeste -- -- -- 27
2019-10-01 13:00:00 23.1 13 Oeste 28 Sudoeste -- -- -- 29
2019-10-01 12:00:00 22.4 12 Oeste 24 Oeste -- -- -- 32
2019-10-01 11:00:00 20.2 11 Oeste 24 Oeste -- -- -- 33
2019-10-01 10:00:00 17.1 5 Sudoeste 19 Oeste -- -- -- 40
2019-10-01 09:00:00 14.5 8 Sudoeste 19 Sur -- -- -- 44
2019-10-01 08:00:00 13 12 Sur 21 Sudoeste -- -- -- 47
2019-10-01 07:00:00 13.7 15 Sur 24 Sudoeste -- -- -- 46
2019-10-01 06:00:00 13.6 17 Sur 24 Sur -- -- -- 46
2019-10-01 05:00:00 13.2 16 Sur 23 Sur -- -- -- 48
2019-10-01 04:00:00 14.1 15 Sur 22 Sur -- -- -- 46
2019-10-01 03:00:00 13.7 16 Sur 22 Sur -- -- -- 48
2019-10-01 02:00:00 14.9 19 Sur 23 Sur -- -- -- 45
2019-10-01 01:00:00 15.2 18 Sur 23 Sur -- -- -- 43
2019-10-01 00:00:00 15.5 9 Sur 18 Sur -- -- -- 41
2019-09-30 23:00:00 16.3 9 Sur 15 Sudoeste -- -- -- 39
2019-09-30 22:00:00 19.4 10 Sudoeste 19 Sudoeste -- -- -- 34
2019-09-30 21:00:00 20.5 12 Sudoeste 22 Sudoeste -- -- -- 33
2019-09-30 20:00:00 22 10 Sudoeste 25 Sudoeste -- -- -- 29
2019-09-30 19:00:00 23.7 12 Sudoeste 26 Sudoeste -- -- -- 27
2019-09-30 18:00:00 25 13 Oeste 32 Sudoeste -- -- -- 25
2019-09-30 17:00:00 27 16 Sudoeste 31 Oeste -- -- -- 23
2019-09-30 16:00:00 26.9 14 Oeste 32 Sudoeste -- -- -- 21
2019-09-30 15:00:00 26.4 15 Sudoeste 30 Sudoeste -- -- -- 21
2019-09-30 14:00:00 26 14 Sudoeste 29 Sudoeste -- -- -- 21
2019-09-30 13:00:00 24.7 6 Sudoeste 17 Oeste -- -- -- 26
2019-09-30 12:00:00 20.3 4 Nordeste 10 Nordeste -- -- -- 41
2019-09-30 11:00:00 16.2 5 Nordeste 8 Norte -- -- -- 47
2019-09-30 10:00:00 11.7 5 Nordeste 8 Norte -- -- -- 59
2019-09-30 09:00:00 9.4 4 Nordeste 6 Nordeste -- -- -- 63
2019-09-30 08:00:00 10.5 3 Sudeste 6 Sudeste -- -- -- 60
2019-09-30 07:00:00 10.3 4 Nordeste 8 Sudeste -- -- -- 59
2019-09-30 06:00:00 10.5 3 Sudeste 6 Nordeste -- -- -- 56
2019-09-30 05:00:00 11.7 3 Este 5 Sudeste -- -- -- 55
2019-09-30 04:00:00 12.5 2 Este 6 Sur -- -- -- 51
2019-09-30 03:00:00 13 3 Sudeste 6 Este -- -- -- 50
2019-09-30 02:00:00 13.5 4 Sur 13 Sur -- -- -- 47
2019-09-30 01:00:00 15 6 Sur 12 Sur -- -- -- 43
2019-09-30 00:00:00 15.1 5 Sudoeste 15 Sur -- -- -- 44
2019-09-29 23:00:00 16.7 8 Sur 17 Sur -- -- -- 40
2019-09-29 22:00:00 18.1 10 Sudoeste 20 Sur -- -- -- 38
2019-09-29 21:00:00 20.3 10 Sudoeste 17 Sudoeste -- -- -- 33
2019-09-29 20:00:00 22.2 10 Sudoeste 22 Sudoeste -- -- -- 29
2019-09-29 19:00:00 23.8 13 Sudoeste 25 Sudoeste -- -- -- 28
2019-09-29 18:00:00 25 14 Oeste 29 Oeste -- -- -- 26
2019-09-29 17:00:00 26.3 13 Oeste 31 Oeste -- -- -- 28
2019-09-29 16:00:00 26.1 16 Oeste 33 Oeste -- -- -- 30
2019-09-29 15:00:00 25.5 16 Oeste 38 Oeste -- -- -- 28
2019-09-29 14:00:00 25.3 16 Oeste 38 Sudoeste -- -- -- 28
2019-09-29 13:00:00 24.6 18 Oeste 32 Noroeste -- -- -- 30
2019-09-29 12:00:00 23.4 14 Sudoeste 30 Sudoeste -- -- -- 30
2019-09-29 11:00:00 20.9 6 Sudoeste 19 Sudoeste -- -- -- 45
2019-09-29 10:00:00 17.5 10 Sudoeste 21 Sur -- -- -- 64
2019-09-29 09:00:00 13.7 17 Sur 24 Sur -- -- -- 75
2019-09-29 08:00:00 12.6 14 Sur 26 Sur -- -- -- 79
2019-09-29 07:00:00 12.6 15 Sur 22 Sur -- -- -- 79
2019-09-29 06:00:00 12.7 15 Sur 22 Sur -- -- -- 77
2019-09-29 05:00:00 13.2 13 Sur 22 Sur -- -- -- 73
2019-09-29 04:00:00 13.5 16 Sur 23 Sur -- -- -- 64
2019-09-29 03:00:00 13.5 15 Sur 22 Sur -- -- -- 47
2019-09-29 02:00:00 13.5 15 Sur 21 Sudeste -- -- -- 46
2019-09-29 01:00:00 13.8 16 Sur 20 Sur -- -- -- 45
2019-09-29 00:00:00 14.8 9 Sur 14 Sudoeste -- -- -- 42
2019-09-28 23:00:00 15.7 6 Sur 13 Sudoeste -- -- -- 40
2019-09-28 22:00:00 18.6 7 Sudoeste 14 Oeste -- -- -- 34
2019-09-28 21:00:00 19.8 9 Sudoeste 16 Sudoeste -- -- -- 30
2019-09-28 20:00:00 21.7 7 Sudoeste 22 Sudoeste -- -- -- 27
2019-09-28 19:00:00 23.4 14 Sudoeste 26 Oeste -- -- -- 27
2019-09-28 18:00:00 24.9 11 Sudoeste 28 Oeste -- -- -- 25
2019-09-28 17:00:00 26.3 15 Sudoeste 27 Oeste -- -- -- 22
2019-09-28 16:00:00 26.5 10 Sudoeste 28 Oeste -- -- -- 25
2019-09-28 15:00:00 25.3 14 Sudoeste 30 Sudoeste -- -- -- 27
2019-09-28 14:00:00 24.6 13 Sudoeste 31 Sudoeste -- -- -- 30
2019-09-28 13:00:00 23.2 15 Sudoeste 31 Sudoeste -- -- -- 31
2019-09-28 12:00:00 20 4 Norte 11 Oeste -- -- -- 45
2019-09-28 11:00:00 15.5 3 Nordeste 13 Nordeste -- -- -- 53
2019-09-28 10:00:00 11.8 4 Nordeste 9 Nordeste -- -- -- 64
2019-09-28 09:00:00 8.2 5 Nordeste 7 Nordeste -- -- -- 75
2019-09-28 08:00:00 8.1 3 Nordeste 9 Este -- -- -- 73
2019-09-28 07:00:00 9.1 4 Nordeste 10 Sudeste -- -- -- 67
2019-09-28 06:00:00 10.7 5 Sudeste 10 Sudeste -- -- -- 53
2019-09-28 05:00:00 11.2 8 Sudeste 10 Sudeste -- -- -- 56
2019-09-28 04:00:00 10.7 3 Este 5 Este -- -- -- 63
2019-09-28 03:00:00 11.7 3 Nordeste 4 Nordeste -- -- -- 60
2019-09-28 02:00:00 12.5 3 Nordeste 4 Nordeste -- -- -- 58
2019-09-28 01:00:00 13.6 3 Nordeste 6 Sur -- -- -- 52
2019-09-28 00:00:00 14.6 3 Sudeste 5 Sur -- -- -- 47
2019-09-27 23:00:00 15.9 0 Calma 5 Sur -- -- -- 46
2019-09-27 22:00:00 17.2 2 Sudoeste 10 Sudoeste -- -- -- 43
2019-09-27 21:00:00 19.6 5 Sudoeste 15 Sudoeste -- -- -- 38
2019-09-27 20:00:00 21.4 9 Sudoeste 21 Oeste -- -- -- 34
2019-09-27 19:00:00 22.8 11 Oeste 23 Oeste -- -- -- 33
2019-09-27 18:00:00 24 12 Oeste 29 Oeste -- -- -- 30
2019-09-27 17:00:00 25.3 13 Oeste 31 Oeste -- -- -- 30
2019-09-27 16:00:00 25.1 14 Oeste 30 Oeste -- -- -- 33
2019-09-27 15:00:00 24.5 15 Oeste 32 Oeste -- -- -- 35
2019-09-27 14:00:00 24.2 14 Oeste 30 Oeste -- -- -- 37
2019-09-27 13:00:00 23.4 14 Oeste 29 Sudoeste -- -- -- 40
2019-09-27 12:00:00 21.9 11 Oeste 23 Oeste -- -- -- 45
2019-09-27 11:00:00 17.4 3 Nordeste 7 Nordeste -- -- -- 60
2019-09-27 10:00:00 13.8 2 Nordeste 5 Nordeste -- -- -- 72
2019-09-27 09:00:00 10.4 3 Nordeste 6 Nordeste -- -- -- 79
2019-09-27 08:00:00 11.1 0 Calma 6 Sur -- -- -- 74
2019-09-27 07:00:00 11.7 0 Calma 11 Sur -- -- -- 71
2019-09-27 06:00:00 12 5 Sur 13 Sur -- -- -- 71
2019-09-27 05:00:00 12.4 7 Sur 14 Sur -- -- -- 68
2019-09-27 04:00:00 13.4 3 Sur 13 Sur -- -- -- 66
2019-09-27 03:00:00 13.3 9 Sur 14 Sur -- -- -- 64
2019-09-27 02:00:00 13.9 9 Sur 14 Sur -- -- -- 62
2019-09-27 01:00:00 14.9 7 Sudoeste 12 Sudoeste -- -- -- 60
2019-09-27 00:00:00 15.2 6 Sudoeste 10 Sur -- -- -- 58
2019-09-26 23:00:00 16.5 6 Sur 11 Sur -- -- -- 53
2019-09-26 22:00:00 18.4 6 Sudoeste 13 Sudoeste -- -- -- 49
2019-09-26 21:00:00 19.4 7 Sudoeste 14 Sudoeste -- -- -- 46
2019-09-26 20:00:00 21 7 Sudoeste 19 Oeste -- -- -- 43
2019-09-26 19:00:00 22.3 11 Oeste 24 Oeste -- -- -- 39
2019-09-26 18:00:00 23.7 12 Oeste 32 Sur -- -- -- 37
2019-09-26 17:00:00 25.1 12 Sudoeste 28 Sudoeste -- -- -- 34
2019-09-26 16:00:00 24.6 13 Sudoeste 32 Oeste -- -- -- 35
2019-09-26 15:00:00 24 13 Sudoeste 30 Sudoeste -- -- -- 38
2019-09-26 14:00:00 23.1 10 Sudoeste 26 Sudoeste -- -- -- 40
2019-09-26 13:00:00 21.8 13 Sudoeste 27 Sudoeste -- -- -- 42
2019-09-26 12:00:00 20.8 12 Sudoeste 23 Sur -- -- -- 45
2019-09-26 11:00:00 16.7 2 Nordeste 5 Nordeste -- -- -- 59
2019-09-26 10:00:00 11.8 3 Nordeste 5 Nordeste -- -- -- 74
2019-09-26 09:00:00 8.8 0 Calma 5 Nordeste -- -- -- 84
2019-09-26 08:00:00 8.5 3 Sudeste 6 Sudeste -- -- -- 84
2019-09-26 07:00:00 8.4 3 Este 4 Este -- -- -- 82
2019-09-26 06:00:00 9.1 3 Nordeste 6 Sudeste -- -- -- 79
2019-09-26 05:00:00 10 4 Sudeste 6 Sudeste -- -- -- 78
2019-09-26 04:00:00 10.5 2 Nordeste 5 Sudeste -- -- -- 74
2019-09-26 03:00:00 11.3 2 Sudeste 5 Sudeste -- -- -- 72
2019-09-26 02:00:00 11.8 0 Calma 4 Nordeste -- -- -- 69
2019-09-26 01:00:00 12.8 2 Nordeste 6 Nordeste -- -- -- 67
2019-09-26 00:00:00 13.5 2 Este 5 Sudeste -- -- -- 64
2019-09-25 23:00:00 14.1 2 Sudeste 5 Noroeste -- -- -- 61
2019-09-25 22:00:00 15 3 Norte 5 Norte -- -- -- 58
2019-09-25 21:00:00 15.9 3 Norte 9 Norte -- -- -- 55
2019-09-25 20:00:00 17.2 3 Noroeste 10 Noroeste -- -- -- 50
2019-09-25 19:00:00 18.5 6 Norte 15 Noroeste -- -- -- 45
2019-09-25 18:00:00 20 8 Noroeste 24 Oeste -- -- -- 39
2019-09-25 17:00:00 21.1 6 Oeste 21 Oeste -- -- -- 39
2019-09-25 16:00:00 20.3 10 Oeste 24 Oeste -- -- -- 41
2019-09-25 15:00:00 19.9 6 Noroeste 22 Noroeste -- -- -- 43
2019-09-25 14:00:00 18.2 9 Noroeste 20 Oeste -- -- -- 49
2019-09-25 13:00:00 17.8 7 Oeste 17 Oeste -- -- -- 53
2019-09-25 12:00:00 16.8 4 Este 15 Este -- -- -- 57
2019-09-25 11:00:00 14.1 5 Nordeste 16 Nordeste -- -- -- 68
2019-09-25 10:00:00 12.4 7 Nordeste 16 Nordeste -- -- -- 74
2019-09-25 09:00:00 10.9 5 Nordeste 10 Nordeste -- -- -- 81
2019-09-25 08:00:00 10.9 3 Norte 10 Norte -- -- -- 82
2019-09-25 07:00:00 11.6 3 Noroeste 10 Noroeste -- -- -- 80
2019-09-25 06:00:00 12.5 3 Noroeste 11 Noroeste -- -- -- 77
2019-09-25 05:00:00 13.6 5 Norte 19 Nordeste -- -- -- 76
2019-09-25 04:00:00 15.1 6 Oeste 16 Oeste -- -- -- 71
2019-09-25 03:00:00 15.3 7 Oeste 18 Sudoeste -- -- -- 70
2019-09-25 02:00:00 16.1 14 Sudoeste 22 Sudoeste -- -- -- 68
2019-09-25 01:00:00 16.9 5 Oeste 21 Sudoeste -- -- -- 70
2019-09-25 00:00:00 17.2 9 Sudoeste 28 Sudoeste -- -- -- 73
2019-09-24 23:00:00 18 14 Sudoeste 24 Sudoeste -- -- -- 68
2019-09-24 22:00:00 18.5 14 Sudoeste 26 Sudoeste -- -- -- 59
2019-09-24 21:00:00 19 14 Sudoeste 26 Sudoeste -- -- -- 50
2019-09-24 20:00:00 20.4 11 Sudoeste 27 Sudoeste -- -- -- 49
2019-09-24 19:00:00 21.7 14 Oeste 33 Sudoeste -- -- -- 48
2019-09-24 18:00:00 22.7 14 Sudoeste 33 Oeste -- -- -- 44
2019-09-24 17:00:00 24 17 Oeste 40 Sur -- -- -- 41
2019-09-24 16:00:00 24 17 Sudoeste 33 Oeste -- -- -- 38
2019-09-24 15:00:00 22.8 15 Sudoeste 36 Sudoeste -- -- -- 41
2019-09-24 14:00:00 22 15 Oeste 36 Sudoeste -- -- -- 41
2019-09-24 13:00:00 20.8 16 Sudoeste 31 Sudoeste -- -- -- 44
2019-09-24 12:00:00 19.2 14 Sudoeste 33 Sudoeste -- -- -- 49
2019-09-24 11:00:00 17.4 17 Sudoeste 36 Sudoeste -- -- -- 52
2019-09-24 10:00:00 15.3 16 Sudoeste 33 Sudoeste -- -- -- 58
2019-09-24 09:00:00 11.7 11 Sudoeste 19 Sudoeste -- -- -- 70
2019-09-24 08:00:00 10.7 12 Sudoeste 19 Sudoeste -- -- -- 74
2019-09-24 07:00:00 10.9 13 Sudoeste 23 Sudoeste -- -- -- 74
2019-09-24 06:00:00 11.1 15 Sur 25 Sur -- -- -- 74
2019-09-24 05:00:00 11.5 18 Sur 28 Sudoeste -- -- -- 74
2019-09-24 04:00:00 12.8 22 Sudoeste 31 Sur -- -- -- 69
2019-09-24 03:00:00 12.6 21 Sudoeste 29 Sudoeste -- -- -- 70
2019-09-24 02:00:00 12 17 Sur 23 Sur -- -- -- 74
2019-09-24 01:00:00 13.2 16 Sur 22 Sudoeste -- -- -- 70
2019-09-24 00:00:00 14.3 13 Sudoeste 23 Sudoeste -- -- -- 66
2019-09-23 23:00:00 14.7 13 Sudoeste 24 Sudoeste -- -- -- 63
2019-09-23 22:00:00 15.1 12 Sudoeste 22 Sudoeste -- -- -- 62
2019-09-23 21:00:00 15.9 12 Sudoeste 19 Sudoeste -- -- -- 60
2019-09-23 20:00:00 17.3 8 Sudoeste 21 Sudoeste -- -- -- 55
2019-09-23 19:00:00 18.4 8 Oeste 22 Oeste -- -- -- 51
2019-09-23 18:00:00 19.5 12 Oeste 25 Oeste -- -- -- 46
2019-09-23 17:00:00 20.1 14 Oeste 29 Oeste -- -- -- 46
2019-09-23 16:00:00 20.9 14 Oeste 27 Sudoeste -- -- -- 42
2019-09-23 15:00:00 20.1 10 Sudoeste 27 Sudoeste -- -- -- 47
2019-09-23 14:00:00 18.7 8 Sudoeste 23 Oeste -- -- -- 51
2019-09-23 13:00:00 17.7 9 Oeste 21 Oeste -- -- -- 52
2019-09-23 12:00:00 16.2 3 Oeste 10 Este -- -- -- 57
2019-09-23 11:00:00 13.4 5 Nordeste 8 Nordeste -- -- -- 69
2019-09-23 10:00:00 9.5 3 Nordeste 5 Nordeste -- -- -- 85
2019-09-23 09:00:00 7 3 Nordeste 5 Nordeste -- -- -- 90
2019-09-23 08:00:00 7.1 3 Sudeste 5 Sudeste -- -- -- 87
2019-09-23 07:00:00 7.5 3 Este 5 Sudeste -- -- -- 84
2019-09-23 06:00:00 8.1 2 Sudeste 5 Sudeste -- -- -- 81
2019-09-23 05:00:00 8.7 0 Calma 5 Sudeste -- -- -- 80
2019-09-23 04:00:00 9.3 0 Calma 4 Sudeste -- -- -- 79
2019-09-23 03:00:00 10 2 Sur 4 Sudeste -- -- -- 76
2019-09-23 02:00:00 10.5 2 Sudeste 4 Sudeste -- -- -- 74
2019-09-23 01:00:00 11.7 2 Este 5 Nordeste -- -- -- 71
2019-09-23 00:00:00 12.3 0 Calma 5 Noroeste -- -- -- 69
2019-09-22 23:00:00 13.4 2 Noroeste 9 Norte -- -- -- 64
2019-09-22 22:00:00 14.2 3 Nordeste 11 Norte -- -- -- 61
2019-09-22 21:00:00 15.4 3 Noroeste 13 Sudoeste -- -- -- 61
2019-09-22 20:00:00 16.4 4 Oeste 24 Sudoeste -- -- -- 55
2019-09-22 19:00:00 17.5 12 Sudoeste 27 Oeste -- -- -- 52
2019-09-22 18:00:00 18.8 15 Oeste 33 Oeste -- -- -- 45
2019-09-22 17:00:00 19.8 19 Oeste 33 Oeste -- -- -- 45
2019-09-22 16:00:00 18.9 14 Oeste 41 Sudoeste -- -- -- 60
2019-09-22 15:00:00 17.2 18 Sudoeste 31 Sudoeste -- -- -- 75
2019-09-22 14:00:00 15.1 15 Sudoeste 36 Oeste -- -- -- 89
2019-09-22 13:00:00 15.3 15 Oeste 43 Oeste -- -- -- 87
2019-09-22 12:00:00 17.4 24 Sudoeste 41 Sudoeste -- -- -- 69
2019-09-22 11:00:00 15.2 21 Sudoeste 41 Sudoeste -- -- -- 83
2019-09-22 10:00:00 13.9 20 Sudoeste 42 Sur -- -- -- 93
2019-09-22 09:00:00 13.6 15 Sudoeste 30 Sudoeste -- -- -- 92
2019-09-22 08:00:00 13.6 15 Sudoeste 34 Sudoeste -- -- -- 91
2019-09-22 07:00:00 13.7 15 Sudoeste 36 Sudoeste -- -- -- 91
2019-09-22 06:00:00 13.7 18 Sudoeste 35 Sudoeste -- -- -- 90
2019-09-22 05:00:00 13.9 17 Sudoeste 35 Sur -- -- -- 90
2019-09-22 04:00:00 14.1 15 Sudoeste 40 Sudoeste -- -- -- 87
2019-09-22 03:00:00 14.3 19 Sudoeste 34 Sudoeste -- -- -- 87
2019-09-22 02:00:00 14.9 17 Sudoeste 38 Sudoeste -- -- -- 88
2019-09-22 01:00:00 15.2 17 Sudoeste 37 Sudoeste -- -- -- 88
2019-09-22 00:00:00 15.3 13 Sudoeste 30 Sudoeste -- -- -- 88
2019-09-21 23:00:00 15.5 12 Sudoeste 24 Sur -- -- -- 87
2019-09-21 22:00:00 15.7 9 Sudoeste 18 Sudoeste -- -- -- 82
2019-09-21 21:00:00 16.1 10 Sudoeste 27 Sudoeste -- -- -- 79
2019-09-21 20:00:00 16.6 14 Sudoeste 30 Sudoeste -- -- -- 76
2019-09-21 19:00:00 17.4 15 Sudoeste 33 Sudoeste -- -- -- 72
2019-09-21 18:00:00 18.3 16 Sudoeste 30 Sudoeste -- -- -- 64
2019-09-21 17:00:00 18.8 18 Sudoeste 39 Sudoeste -- -- -- 63
2019-09-21 16:00:00 19.1 19 Sudoeste 39 Sudoeste -- -- -- 61
2019-09-21 15:00:00 18.7 21 Sudoeste 39 Sudoeste -- -- -- 63
2019-09-21 14:00:00 17.7 18 Sudoeste 32 Sudoeste -- -- -- 68
2019-09-21 13:00:00 18.3 13 Sudoeste 34 Sudoeste -- -- -- 65
2019-09-21 12:00:00 17.4 15 Sudoeste 32 Sudoeste -- -- -- 69
2019-09-21 11:00:00 15.9 15 Sudoeste 29 Sudoeste -- -- -- 75
2019-09-21 10:00:00 14.7 14 Sudoeste 26 Sur -- -- -- 84
2019-09-21 09:00:00 12.5 9 Sudoeste 21 Sudoeste -- -- -- 91
2019-09-21 08:00:00 12 13 Sur 19 Sudoeste -- -- -- 87
2019-09-21 07:00:00 12.9 11 Sur 22 Sudoeste -- -- -- 84
2019-09-21 06:00:00 12.8 9 Sur 21 Sur -- -- -- 83
2019-09-21 05:00:00 12.9 10 Sur 35 Sur -- -- -- 84
2019-09-21 04:00:00 13.1 20 Sur 35 Sur -- -- -- 86
2019-09-21 03:00:00 14.8 13 Sudoeste 34 Sur -- -- -- 73
2019-09-21 02:00:00 15.2 9 Sur 16 Sudoeste -- -- -- 81
2019-09-21 01:00:00 16.1 3 Sur 13 Sur -- -- -- 75
2019-09-21 00:00:00 16.3 5 Sudoeste 25 Sur -- -- -- 74
2019-09-20 23:00:00 16.7 12 Sur 22 Sur -- -- -- 73
2019-09-20 22:00:00 17.5 5 Sur 21 Sur -- -- -- 69
2019-09-20 21:00:00 18 5 Sur 17 Sudeste -- -- -- 67
2019-09-20 20:00:00 19.3 9 Sur 28 Sur -- -- -- 60
2019-09-20 19:00:00 20.7 15 Sudoeste 32 Sur -- -- -- 55
2019-09-20 18:00:00 21.3 18 Sudoeste 35 Sudoeste -- -- -- 55
2019-09-20 17:00:00 21.5 16 Sudoeste 35 Sudoeste -- -- -- 56
2019-09-20 16:00:00 23 20 Sudoeste 32 Sudoeste -- -- -- 51
2019-09-20 15:00:00 23.7 12 Sudoeste 27 Sudoeste -- -- -- 45
2019-09-20 14:00:00 23.6 13 Sudoeste 28 Sudoeste -- -- -- 44
2019-09-20 13:00:00 23.1 6 Sudoeste 20 Sur -- -- -- 48
2019-09-20 12:00:00 21.4 9 Sur 21 Sudoeste -- -- -- 52
2019-09-20 11:00:00 19.7 12 Sur 28 Sur -- -- -- 55
2019-09-20 10:00:00 17.7 15 Sur 27 Sur -- -- -- 65
2019-09-20 09:00:00 15.3 7 Sur 21 Sur -- -- -- 79
2019-09-20 08:00:00 15 10 Sur 20 Sur -- -- -- 82
2019-09-20 07:00:00 14.8 6 Sur 16 Sur -- -- -- 84
2019-09-20 06:00:00 14.8 7 Sur 16 Sur -- -- -- 83
2019-09-20 05:00:00 15.1 6 Sur 22 Sur -- -- -- 82
2019-09-20 04:00:00 15.2 10 Sur 20 Sur -- -- -- 81
2019-09-20 03:00:00 14.5 5 Sur 14 Sur -- -- -- 79
2019-09-20 02:00:00 14.1 4 Sudeste 9 Sudeste -- -- -- 73
2019-09-20 01:00:00 14.8 3 Este 10 Nordeste -- -- -- 71
2019-09-20 00:00:00 16 5 Este 14 Sudeste -- -- -- 66
2019-09-19 23:00:00 16.8 4 Este 12 Este -- -- -- 62
2019-09-19 22:00:00 17.6 3 Este 9 Este -- -- -- 58
2019-09-19 21:00:00 18.3 11 Sur 28 Sudoeste -- -- -- 57
2019-09-19 20:00:00 20.2 15 Sur 28 Sudoeste -- -- -- 51
2019-09-19 19:00:00 22.9 12 Oeste 23 Sudoeste -- -- -- 39
2019-09-19 18:00:00 24.7 11 Oeste 24 Oeste -- -- -- 35
2019-09-19 17:00:00 24.6 10 Oeste 23 Sudoeste -- -- -- 37
2019-09-19 16:00:00 24.7 9 Oeste 28 Oeste -- -- -- 39
2019-09-19 15:00:00 24.7 13 Oeste 27 Oeste -- -- -- 40
2019-09-19 14:00:00 23.8 8 Oeste 24 Sudoeste -- -- -- 42
2019-09-19 13:00:00 23.6 9 Sur 19 Sudoeste -- -- -- 44
2019-09-19 12:00:00 21.8 8 Sudoeste 17 Sudoeste -- -- -- 53
2019-09-19 11:00:00 17.9 3 Nordeste 7 Este -- -- -- 72
2019-09-19 10:00:00 13.8 3 Nordeste 8 Sur -- -- -- 85
2019-09-19 09:00:00 10.8 3 Nordeste 9 Nordeste -- -- -- 90
2019-09-19 08:00:00 11.1 2 Nordeste 10 Sur -- -- -- 86
2019-09-19 07:00:00 11 0 Calma 12 Sudeste -- -- -- 86
2019-09-19 06:00:00 12 4 Sur 10 Sur -- -- -- 85
2019-09-19 05:00:00 12 0 Calma 5 Sur -- -- -- 82
2019-09-19 04:00:00 12.5 3 Este 10 Sur -- -- -- 79
2019-09-19 03:00:00 12.9 2 Nordeste 5 Nordeste -- -- -- 79
2019-09-19 02:00:00 13.9 3 Nordeste 6 Este -- -- -- 75
2019-09-19 01:00:00 14.9 4 Este 10 Este -- -- -- 71
2019-09-19 00:00:00 15.7 4 Este 9 Este -- -- -- 68
2019-09-18 23:00:00 16.7 5 Este 9 Este -- -- -- 66
2019-09-18 22:00:00 17.4 5 Este 10 Este -- -- -- 61
2019-09-18 21:00:00 18.8 2 Sudoeste 8 Oeste -- -- -- 54
2019-09-18 20:00:00 20.9 6 Oeste 17 Oeste -- -- -- 49
2019-09-18 19:00:00 22.1 9 Oeste 25 Oeste -- -- -- 46
2019-09-18 18:00:00 23.4 12 Oeste 23 Oeste -- -- -- 42
2019-09-18 17:00:00 23 8 Oeste 24 Oeste -- -- -- 44
2019-09-18 16:00:00 21.7 12 Oeste 22 Oeste -- -- -- 47
2019-09-18 15:00:00 21.1 10 Oeste 19 Oeste -- -- -- 47
2019-09-18 14:00:00 20.6 9 Oeste 15 Oeste -- -- -- 51
2019-09-18 13:00:00 20.1 8 Oeste 15 Oeste -- -- -- 54
2019-09-18 12:00:00 19 6 Oeste 14 Oeste -- -- -- 57
2019-09-18 11:00:00 15.6 3 Norte 12 Sur -- -- -- 76
2019-09-18 10:00:00 13.1 2 Sur 8 Sudoeste -- -- -- 86
2019-09-18 09:00:00 10.9 3 Nordeste 6 Nordeste -- -- -- 91
2019-09-18 08:00:00 9.9 4 Nordeste 7 Nordeste -- -- -- 91
2019-09-18 07:00:00 10 3 Nordeste 6 Nordeste -- -- -- 90
2019-09-18 06:00:00 10.5 0 Calma 12 Sur -- -- -- 81
2019-09-18 05:00:00 12 7 Sur 11 Sur -- -- -- 77
2019-09-18 04:00:00 11.8 5 Sur 11 Sur -- -- -- 78
2019-09-18 03:00:00 12.6 5 Sudeste 8 Nordeste -- -- -- 79
2019-09-18 02:00:00 13.3 0 Calma 9 Sur -- -- -- 74
2019-09-18 01:00:00 14.6 2 Sudeste 8 Nordeste -- -- -- 68
2019-09-18 00:00:00 15.3 6 Este 16 Este -- -- -- 68
2019-09-17 23:00:00 14.8 4 Este 26 Nordeste -- -- -- 73
2019-09-17 22:00:00 15.4 10 Nordeste 51 Sudoeste -- -- -- 72
2019-09-17 21:00:00 16.6 27 Sudoeste 56 Sudoeste -- -- -- 66
2019-09-15 18:00:00 -- -- -- -- -- -- -- -- --
2019-09-15 17:00:00 -- -- -- -- -- -- -- -- --
2019-09-15 16:00:00 -- -- -- -- -- -- -- -- --
2019-09-15 15:00:00 19.6 10 Este 24 Este -- -- -- 70
2019-09-15 14:00:00 18.8 7 Nordeste 15 Nordeste -- -- -- 78
2019-09-15 13:00:00 15 7 Nordeste 12 Nordeste -- -- -- 88
2019-09-15 12:00:00 13 4 Sudoeste 13 Sudoeste -- -- -- 92
2019-09-15 11:00:00 13.3 6 Nordeste 14 Nordeste -- -- -- 89
2019-09-15 10:00:00 13.1 4 Nordeste 12 Este -- -- -- 74
2019-09-15 09:00:00 12.7 4 Nordeste 16 Norte -- -- -- 74
2019-09-15 08:00:00 12.3 5 Nordeste 13 Nordeste -- -- -- 78
2019-09-15 07:00:00 12.3 4 Nordeste 10 Nordeste -- -- -- 77
2019-09-15 06:00:00 12.6 4 Nordeste 14 Nordeste -- -- -- 77
2019-09-15 05:00:00 12.8 6 Este 13 Nordeste -- -- -- 77
2019-09-15 04:00:00 13.1 8 Este 27 Este -- -- -- 75
2019-09-15 03:00:00 13.4 9 Este 18 Este -- -- -- 73
2019-09-15 02:00:00 13.8 6 Este 12 Este -- -- -- 68
2019-09-15 01:00:00 14.2 6 Este 18 Nordeste -- -- -- 64
2019-09-15 00:00:00 14.6 6 Este 20 Nordeste -- -- -- 64